Time;durP1;ratioP1;P1;durP2;ratioP2;P2;SDS_P1;SDS_P2;PMS_P1;PMS_P2;Temp;Humidity;BMP_temperature;BMP_pressure;BME280_temperature;BME280_humidity;BME280_pressure;Samples;Min_cycle;Max_cycle;Signal;HPM_P1;HPM_P2
2022/07/04 00:00:08;;;;;;;1.83;1.73;;;-12.70;99.90;;;;;;5063875;28;20222;-75
2022/07/04 00:02:36;;;;;;;1.23;1.13;;;-13.10;99.90;;;;;;5065439;28;20179;-74
2022/07/04 00:05:01;;;;;;;2.30;1.57;;;-12.50;99.90;;;;;;5065932;28;20168;-70
2022/07/04 00:07:27;;;;;;;1.27;1.23;;;-12.70;99.90;;;;;;5063867;28;20532;-68
2022/07/04 00:09:53;;;;;;;2.13;1.27;;;-11.10;99.90;;;;;;5065731;28;20590;-71
2022/07/04 00:12:19;;;;;;;6.30;1.40;;;-11.60;99.90;;;;;;5065185;28;20580;-74
2022/07/04 00:14:45;;;;;;;7.67;2.57;;;-11.90;99.90;;;;;;5065938;28;20270;-69
2022/07/04 00:17:11;;;;;;;1.60;1.50;;;-15.20;99.90;;;;;;5062698;28;20262;-74
2022/07/04 00:19:37;;;;;;;2.40;2.13;;;-13.20;99.90;;;;;;5063970;28;20198;-71
2022/07/04 00:22:03;;;;;;;4.87;1.90;;;-10.90;99.90;;;;;;5064674;28;20180;-76
2022/07/04 00:24:29;;;;;;;2.63;2.43;;;-13.30;99.90;;;;;;5066235;28;20479;-73
2022/07/04 00:26:54;;;;;;;3.43;2.23;;;-11.30;99.90;;;;;;5064562;28;20176;-75
2022/07/04 00:29:20;;;;;;;4.87;2.23;;;-12.10;99.90;;;;;;5068178;28;20183;-75
2022/07/04 00:31:46;;;;;;;2.77;2.10;;;-14.80;99.90;;;;;;5069873;28;20605;-75
2022/07/04 00:34:12;;;;;;;2.77;2.47;;;-13.80;99.90;;;;;;5067989;28;20590;-75
2022/07/04 00:36:37;;;;;;;3.13;2.90;;;-14.00;99.90;;;;;;5068579;28;20237;-75
2022/07/04 00:39:04;;;;;;;3.37;3.10;;;-15.40;99.90;;;;;;5069481;28;20212;-75
2022/07/04 00:41:29;;;;;;;3.20;2.30;;;-11.80;99.90;;;;;;5066665;28;20179;-75
2022/07/04 00:44:07;;;;;;;2.67;1.37;;;-13.50;99.90;;;;;;5068996;28;20167;-73
2022/07/04 00:46:33;;;;;;;2.50;1.53;;;-12.70;99.90;;;;;;5067763;28;20229;-75
2022/07/04 00:48:59;;;;;;;4.13;1.77;;;-10.30;99.90;;;;;;5068529;28;20257;-73
2022/07/04 00:51:26;;;;;;;3.60;1.40;;;-11.50;99.90;;;;;;5069170;28;20180;-73
2022/07/04 00:53:53;;;;;;;4.70;1.53;;;-13.50;99.90;;;;;;5067419;28;20198;-75
2022/07/04 00:56:20;;;;;;;4.37;2.27;;;-14.30;99.90;;;;;;5068623;28;20182;-75
2022/07/04 00:58:47;;;;;;;1.90;1.20;;;-14.30;99.90;;;;;;5068722;28;20191;-73
2022/07/04 01:01:14;;;;;;;4.90;1.57;;;-11.20;99.90;;;;;;5067410;28;20200;-75
2022/07/04 01:03:40;;;;;;;2.97;1.23;;;-8.80;99.90;;;;;;5071041;28;20207;-73
2022/07/04 01:06:08;;;;;;;3.63;1.43;;;-10.70;99.90;;;;;;5069951;28;20182;-75
2022/07/04 01:08:41;;;;;;;5.87;1.93;;;-11.20;99.90;;;;;;5067221;28;20188;-76
2022/07/04 01:11:07;;;;;;;3.63;1.80;;;-10.60;99.90;;;;;;5066551;28;20524;-75
2022/07/04 01:13:33;;;;;;;2.43;1.93;;;-12.80;99.90;;;;;;5068940;28;20210;-76
2022/07/04 01:15:59;;;;;;;5.60;2.90;;;-15.90;99.90;;;;;;5067903;28;20176;-75
2022/07/04 01:18:24;;;;;;;4.57;1.93;;;-13.00;99.90;;;;;;5067656;28;20590;-76
2022/07/04 01:20:50;;;;;;;5.90;2.20;;;-11.90;99.90;;;;;;5069287;28;20183;-75
2022/07/04 01:23:17;;;;;;;3.60;2.20;;;-11.10;99.90;;;;;;5067112;28;20520;-76
2022/07/04 01:25:43;;;;;;;3.37;2.87;;;-11.90;99.90;;;;;;5067713;28;20175;-70
2022/07/04 01:28:09;;;;;;;3.63;3.33;;;-12.80;99.90;;;;;;5068415;28;20233;-73
2022/07/04 01:30:36;;;;;;;7.00;3.23;;;-11.40;99.90;;;;;;5068536;28;20179;-74
2022/07/04 01:33:03;;;;;;;4.73;4.33;;;-11.60;99.90;;;;;;5067671;28;20183;-75
2022/07/04 01:35:29;;;;;;;8.93;3.97;;;-13.70;99.90;;;;;;5070723;28;20259;-74
2022/07/04 01:37:55;;;;;;;4.40;3.13;;;-15.30;99.90;;;;;;5066132;28;20204;-70
2022/07/04 01:40:20;;;;;;;5.77;3.37;;;-13.30;99.90;;;;;;5066462;28;20214;-75
2022/07/04 01:42:46;;;;;;;4.63;2.70;;;-11.70;99.90;;;;;;5067955;28;20580;-75
2022/07/04 01:45:13;;;;;;;4.30;2.37;;;-10.50;99.90;;;;;;5065400;28;20175;-72
2022/07/04 01:47:39;;;;;;;4.87;2.17;;;-13.40;99.90;;;;;;5068119;28;20260;-74
2022/07/04 01:50:07;;;;;;;6.47;2.33;;;-14.60;99.90;;;;;;5067630;28;20187;-75
2022/07/04 01:52:34;;;;;;;2.00;1.80;;;-14.00;99.90;;;;;;5066336;28;20294;-74
2022/07/04 01:55:00;;;;;;;1.60;1.50;;;-13.70;99.90;;;;;;5069129;28;20641;-73
2022/07/04 01:57:25;;;;;;;8.80;2.17;;;-11.90;99.90;;;;;;5067480;28;20471;-76
2022/07/04 02:02:37;;;;;;;3.80;1.73;;;-12.60;99.90;;;;;;5068244;28;20313;-71
2022/07/04 02:05:04;;;;;;;6.03;2.17;;;-13.80;99.90;;;;;;5065471;28;20483;-74
2022/07/04 02:07:30;;;;;;;6.30;1.97;;;-13.00;99.90;;;;;;5066405;28;20181;-76
2022/07/04 02:09:55;;;;;;;2.40;1.47;;;-13.40;99.90;;;;;;5066891;28;20180;-75
2022/07/04 02:15:06;;;;;;;3.47;1.67;;;-13.60;99.90;;;;;;5066980;28;20529;-74
2022/07/04 02:17:32;;;;;;;4.80;1.23;;;-13.30;99.90;;;;;;5065809;28;20171;-75
2022/07/04 02:19:58;;;;;;;4.27;1.90;;;-16.00;99.90;;;;;;5067803;28;20200;-75
2022/07/04 02:22:23;;;;;;;3.20;2.47;;;-14.90;99.90;;;;;;5066231;28;20229;-74
2022/07/04 02:24:49;;;;;;;5.13;1.93;;;-15.40;99.90;;;;;;5066038;28;20210;-75
2022/07/04 02:27:15;;;;;;;3.43;2.00;;;-13.00;99.90;;;;;;5067770;28;20616;-71
2022/07/04 02:29:41;;;;;;;2.47;2.03;;;-13.10;99.90;;;;;;5065767;28;20177;-74
2022/07/04 02:32:07;;;;;;;4.83;1.77;;;-14.20;99.90;;;;;;5065617;28;20246;-73
2022/07/04 02:34:33;;;;;;;3.03;2.00;;;-14.40;99.90;;;;;;5067293;28;20233;-71
2022/07/04 02:36:59;;;;;;;8.67;1.67;;;-14.90;99.90;;;;;;5065263;28;20192;-71
2022/07/04 02:39:24;;;;;;;3.50;1.70;;;-13.90;99.90;;;;;;5066285;28;20546;-67
2022/07/04 02:41:51;;;;;;;4.23;1.97;;;-19.20;99.90;;;;;;5065624;28;20530;-72
2022/07/04 02:44:16;;;;;;;3.07;1.63;;;-15.70;99.90;;;;;;5065222;28;20251;-69
2022/07/04 02:46:42;;;;;;;8.93;1.70;;;-17.00;99.90;;;;;;5067205;28;20254;-69
2022/07/04 02:49:08;;;;;;;4.70;2.03;;;-16.10;99.90;;;;;;5066457;28;20215;-66
2022/07/04 02:51:34;;;;;;;3.27;1.60;;;-17.20;99.90;;;;;;5065117;28;20537;-64
2022/07/04 02:54:00;;;;;;;2.37;1.53;;;-14.00;99.90;;;;;;5066964;28;20180;-73
2022/07/04 02:56:26;;;;;;;13.87;2.50;;;-12.90;99.90;;;;;;5064614;28;20176;-71
2022/07/04 02:58:52;;;;;;;3.63;1.70;;;-15.50;99.90;;;;;;5067022;28;20594;-75
2022/07/04 03:01:19;;;;;;;2.03;1.63;;;-16.10;99.90;;;;;;5067407;28;20167;-75
2022/07/04 03:03:45;;;;;;;4.33;1.93;;;-17.60;99.90;;;;;;5065374;28;20168;-75
2022/07/04 03:06:12;;;;;;;1.83;1.67;;;-19.30;99.90;;;;;;5065411;28;20171;-71
2022/07/04 03:08:38;;;;;;;2.20;1.73;;;-14.40;99.90;;;;;;5066574;28;20270;-76
2022/07/04 03:11:05;;;;;;;3.50;2.73;;;-13.80;99.90;;;;;;5064063;28;20267;-75
2022/07/04 03:13:31;;;;;;;1.80;1.70;;;-15.50;99.90;;;;;;5065695;28;20172;-72
2022/07/04 03:15:57;;;;;;;1.77;1.67;;;-17.60;99.90;;;;;;5066530;28;20181;-74
2022/07/04 03:18:23;;;;;;;1.80;1.67;;;-18.30;99.90;;;;;;5064758;28;20172;-69
2022/07/04 03:20:49;;;;;;;2.13;2.03;;;-15.60;99.90;;;;;;5064894;28;20171;-68
2022/07/04 03:23:15;;;;;;;2.70;2.00;;;-16.10;99.90;;;;;;5066327;28;20183;-68
2022/07/04 03:25:42;;;;;;;5.80;2.50;;;-15.40;99.90;;;;;;5064384;28;20206;-74
2022/07/04 03:28:08;;;;;;;3.77;1.63;;;-18.40;99.90;;;;;;5065965;28;20179;-74
2022/07/04 03:30:35;;;;;;;2.00;1.80;;;-13.30;99.90;;;;;;5065966;28;20556;-75
2022/07/04 03:33:01;;;;;;;2.07;1.87;;;-16.30;99.90;;;;;;5063869;28;20477;-69
2022/07/04 03:35:27;;;;;;;1.77;1.67;;;-18.80;99.90;;;;;;5065515;28;20171;-72
2022/07/04 03:37:53;;;;;;;7.23;2.33;;;-13.60;99.90;;;;;;5065422;28;20186;-75
2022/07/04 03:40:20;;;;;;;1.57;1.40;;;-17.30;99.90;;;;;;5067301;28;20614;-75
2022/07/04 03:42:46;;;;;;;7.20;1.73;;;-19.30;99.90;;;;;;5064610;28;20167;-73
2022/07/04 03:45:12;;;;;;;1.60;1.50;;;-16.80;99.90;;;;;;5064402;28;20179;-68
2022/07/04 03:47:38;;;;;;;3.70;1.63;;;-14.10;99.90;;;;;;5066054;28;20201;-67
2022/07/04 03:50:05;;;;;;;1.60;1.50;;;-13.80;99.90;;;;;;5064279;28;20176;-74
2022/07/04 03:52:31;;;;;;;4.30;1.87;;;-15.60;99.90;;;;;;5064969;28;20172;-73
2022/07/04 03:54:56;;;;;;;6.63;2.47;;;-15.40;99.90;;;;;;5065962;28;20172;-66
2022/07/04 03:57:22;;;;;;;9.57;2.70;;;-17.50;99.90;;;;;;5062991;28;20183;-67
2022/07/04 03:59:48;;;;;;;3.67;1.57;;;-12.80;99.90;;;;;;5065801;28;20195;-74
2022/07/04 04:02:14;;;;;;;2.27;2.10;;;-20.90;99.90;;;;;;5063420;28;20178;-71
2022/07/04 04:07:24;;;;;;;4.37;1.90;;;-22.30;99.90;;;;;;5066100;28;20182;-74
2022/07/04 04:09:50;;;;;;;3.10;2.07;;;-21.00;99.90;;;;;;5064644;28;20292;-66
2022/07/04 04:12:16;;;;;;;3.70;1.60;;;-21.90;99.90;;;;;;5064618;28;20578;-73
2022/07/04 04:14:42;;;;;;;4.27;1.90;;;-22.60;99.90;;;;;;5066156;28;20190;-74
2022/07/04 04:17:08;;;;;;;3.73;1.60;;;-23.50;99.90;;;;;;5064167;28;20553;-65
2022/07/04 04:19:34;;;;;;;2.00;1.40;;;-22.50;99.90;;;;;;5064963;28;20267;-75
2022/07/04 04:21:59;;;;;;;3.67;1.60;;;-21.20;99.90;;;;;;5065387;28;20172;-70
2022/07/04 04:24:25;;;;;;;2.80;1.57;;;-26.00;99.90;;;;;;5063818;28;20183;-66
2022/07/04 04:26:51;;;;;;;2.80;1.73;;;-23.60;99.90;;;;;;5065448;28;20167;-75
2022/07/04 04:29:17;;;;;;;4.43;2.57;;;-24.70;99.90;;;;;;5063931;28;20182;-72
2022/07/04 04:31:43;;;;;;;4.60;1.60;;;-23.10;99.90;;;;;;5063804;28;20618;-74
2022/07/04 04:34:09;;;;;;;4.17;1.83;;;-27.10;99.90;;;;;;5065876;28;20175;-75
2022/07/04 04:36:35;;;;;;;4.50;1.60;;;-19.30;99.90;;;;;;5064548;28;20175;-75
2022/07/04 04:39:00;;;;;;;2.03;1.60;;;-22.80;99.90;;;;;;5064062;28;20195;-74
2022/07/04 04:41:26;;;;;;;3.77;2.43;;;-22.10;99.90;;;;;;5064861;28;20198;-76
2022/07/04 04:43:52;;;;;;;2.53;1.90;;;-26.10;99.90;;;;;;5064071;28;20579;-75
2022/07/04 04:46:18;;;;;;;4.53;2.00;;;-25.30;99.90;;;;;;5064374;28;20480;-74
2022/07/04 04:48:43;;;;;;;2.33;2.00;;;-26.40;99.90;;;;;;5065379;28;20817;-75
2022/07/04 04:51:09;;;;;;;3.17;1.70;;;-24.70;99.90;;;;;;5063905;28;20187;-74
2022/07/04 04:53:36;;;;;;;8.90;2.20;;;-24.20;99.90;;;;;;5067508;28;20552;-72
2022/07/04 04:56:02;;;;;;;2.30;1.70;;;-24.80;99.90;;;;;;5065728;28;20206;-74
2022/07/04 04:58:28;;;;;;;3.80;1.60;;;-24.20;99.90;;;;;;5063514;28;20176;-69
2022/07/04 05:00:54;;;;;;;4.10;3.00;;;-26.60;99.90;;;;;;5064902;28;20588;-75
2022/07/04 05:03:20;;;;;;;3.90;2.23;;;-29.90;99.90;;;;;;5064565;28;20168;-76
2022/07/04 05:05:46;;;;;;;5.20;2.13;;;-24.80;99.90;;;;;;5063262;28;20572;-71
2022/07/04 05:08:13;;;;;;;4.77;2.27;;;-24.70;99.90;;;;;;5065370;28;20258;-73
2022/07/04 05:10:42;;;;;;;2.63;1.77;;;-33.80;99.90;;;;;;5064618;28;20168;-75
2022/07/04 05:13:07;;;;;;;2.80;1.70;;;-33.30;99.90;;;;;;5062398;28;20188;-74
2022/07/04 05:15:33;;;;;;;2.73;1.33;;;-32.80;99.90;;;;;;5067814;28;20167;-73
2022/07/04 05:17:59;;;;;;;2.97;1.80;;;-26.50;99.90;;;;;;5067759;28;20923;-71
2022/07/04 05:20:25;;;;;;;6.10;2.33;;;-27.50;99.90;;;;;;5067309;28;20621;-70
2022/07/04 05:22:50;;;;;;;3.83;1.37;;;-29.40;99.90;;;;;;5068728;28;20574;-69
2022/07/04 05:25:16;;;;;;;5.37;2.20;;;-22.10;99.90;;;;;;5067697;28;20172;-75
2022/07/04 05:27:42;;;;;;;4.07;1.87;;;-25.80;99.90;;;;;;5067544;28;20165;-76
2022/07/04 05:30:09;;;;;;;6.90;1.70;;;-24.90;99.90;;;;;;5068877;28;20179;-67
2022/07/04 05:32:39;;;;;;;2.53;1.63;;;-25.30;99.90;;;;;;5066741;28;20583;-68
2022/07/04 05:35:05;;;;;;;5.10;1.43;;;-32.10;99.90;;;;;;5067314;28;20175;-65
2022/07/04 05:37:30;;;;;;;4.20;2.37;;;-26.30;99.90;;;;;;5068028;28;20642;-68
2022/07/04 05:39:56;;;;;;;5.13;1.87;;;-21.20;99.90;;;;;;5066867;28;20283;-74
2022/07/04 05:42:22;;;;;;;3.43;1.70;;;-33.90;99.90;;;;;;5067294;28;20198;-72
2022/07/04 05:44:48;;;;;;;4.73;1.43;;;-32.20;99.90;;;;;;5068437;28;20607;-75
2022/07/04 05:47:14;;;;;;;1.37;1.27;;;-35.10;99.90;;;;;;5066378;28;20172;-67
2022/07/04 05:49:40;;;;;;;2.17;1.40;;;-29.30;99.90;;;;;;5067520;28;20194;-68
2022/07/04 05:52:06;;;;;;;2.10;1.60;;;-23.80;99.90;;;;;;5068072;28;20180;-71
2022/07/04 05:54:32;;;;;;;7.57;6.90;;;-28.80;99.90;;;;;;5040713;28;20183;-72
2022/07/04 05:56:58;;;;;;;3.27;2.97;;;-24.70;99.90;;;;;;5058818;28;20186;-73
2022/07/04 05:59:29;;;;;;;2.70;1.73;;;-24.80;99.90;;;;;;5064026;28;20188;-70
2022/07/04 06:01:55;;;;;;;5.67;1.87;;;-24.50;99.90;;;;;;5065693;28;20173;-75
2022/07/04 06:04:21;;;;;;;2.10;1.33;;;-23.10;99.90;;;;;;5067338;28;20217;-78
2022/07/04 06:06:46;;;;;;;2.93;1.60;;;-18.80;99.90;;;;;;5067325;28;20176;-77
2022/07/04 06:09:12;;;;;;;6.13;1.37;;;-20.90;99.90;;;;;;5065676;28;20602;-78
2022/07/04 06:11:38;;;;;;;2.57;1.80;;;-20.90;99.90;;;;;;5067831;28;20172;-74
2022/07/04 06:14:04;;;;;;;2.30;1.60;;;-16.30;99.90;;;;;;5066075;28;20176;-76
2022/07/04 06:16:30;;;;;;;2.57;2.13;;;-15.30;99.90;;;;;;5065797;28;20174;-75
2022/07/04 06:18:55;;;;;;;53.27;35.43;;;-19.70;99.90;;;;;;5066012;28;20196;-76
2022/07/04 06:21:21;;;;;;;9.50;6.00;;;-20.40;99.90;;;;;;5066858;28;20194;-71
2022/07/04 06:23:47;;;;;;;48.53;22.40;;;-18.70;99.90;;;;;;5067157;28;20175;-76
2022/07/04 06:26:13;;;;;;;72.50;39.27;;;-19.80;99.90;;;;;;5065366;28;20171;-77
2022/07/04 06:28:39;;;;;;;23.27;13.83;;;-23.30;99.90;;;;;;5067321;28;20171;-72
2022/07/04 06:31:04;;;;;;;10.70;4.73;;;-21.50;99.90;;;;;;5063224;28;20229;-76
2022/07/04 06:33:30;;;;;;;5.53;3.97;;;-18.40;99.90;;;;;;5069128;28;20179;-74
2022/07/04 06:35:56;;;;;;;10.10;5.40;;;-13.70;99.90;;;;;;5068555;28;20586;-77
2022/07/04 06:38:27;;;;;;;10.57;6.10;;;-20.30;99.90;;;;;;5064559;28;20211;-77
2022/07/04 06:40:55;;;;;;;9.10;3.97;;;-24.20;99.90;;;;;;5064746;28;20257;-75
2022/07/04 06:43:22;;;;;;;7.73;3.70;;;-20.60;99.90;;;;;;5066045;28;20171;-77
2022/07/04 06:45:47;;;;;;;3.83;1.63;;;-27.80;99.90;;;;;;5065815;28;20230;-76
2022/07/04 06:48:13;;;;;;;6.40;3.10;;;-24.30;99.90;;;;;;5068744;28;20200;-68
2022/07/04 06:50:39;;;;;;;7.27;2.63;;;-22.40;99.90;;;;;;5067221;28;20163;-65
2022/07/04 06:53:06;;;;;;;4.00;1.47;;;-34.80;99.90;;;;;;5067098;28;20244;-76
2022/07/04 06:55:33;;;;;;;11.87;2.90;;;-19.30;99.90;;;;;;5066908;28;20571;-72
2022/07/04 06:57:59;;;;;;;3.87;1.90;;;-22.30;99.90;;;;;;5065006;28;20211;-77
2022/07/04 07:00:25;;;;;;;3.40;1.73;;;-26.50;99.90;;;;;;5066895;28;20231;-72
2022/07/04 07:02:51;;;;;;;3.83;1.23;;;-28.90;99.90;;;;;;5067275;28;20163;-70
2022/07/04 07:05:20;;;;;;;5.63;1.53;;;-21.00;99.90;;;;;;5069078;28;20175;-72
2022/07/04 07:07:48;;;;;;;2.13;1.90;;;-30.70;99.90;;;;;;5066082;28;20182;-69
2022/07/04 07:10:18;;;;;;;4.23;2.00;;;-27.70;99.90;;;;;;5065885;28;20270;-76
2022/07/04 07:12:44;;;;;;;2.93;1.10;;;-23.20;99.90;;;;;;5065181;28;20172;-73
2022/07/04 07:15:10;;;;;;;2.93;1.47;;;-34.20;99.90;;;;;;5068921;28;20229;-76
2022/07/04 07:17:36;;;;;;;2.67;1.33;;;-17.60;99.90;;;;;;5064807;28;20172;-71
2022/07/04 07:20:03;;;;;;;2.03;1.20;;;-16.30;99.90;;;;;;5067240;28;20566;-76
2022/07/04 07:22:29;;;;;;;1.23;1.13;;;-14.30;99.90;;;;;;5066652;28;20187;-73
2022/07/04 07:24:56;;;;;;;4.03;1.30;;;-14.80;99.90;;;;;;5067001;28;20164;-69
2022/07/04 07:27:22;;;;;;;4.23;1.33;;;-13.00;99.90;;;;;;5064591;28;20182;-70
2022/07/04 07:29:48;;;;;;;5.33;1.73;;;-25.00;99.90;;;;;;5068803;28;20171;-77
2022/07/04 07:32:14;;;;;;;5.63;1.23;;;-19.70;99.90;;;;;;5066672;28;20555;-77
2022/07/04 07:34:40;;;;;;;3.20;3.00;;;-26.90;99.90;;;;;;5061481;28;20229;-75
2022/07/04 07:37:06;;;;;;;2.43;1.03;;;-22.00;99.90;;;;;;5067576;28;20556;-76
2022/07/04 07:39:33;;;;;;;2.60;1.83;;;-24.60;99.90;;;;;;5064892;28;20274;-78
2022/07/04 07:41:59;;;;;;;4.10;1.73;;;-27.90;99.90;;;;;;5064569;28;20198;-70
2022/07/04 07:44:25;;;;;;;4.10;1.10;;;-21.80;99.90;;;;;;5067624;28;20167;-77
2022/07/04 07:46:52;;;;;;;3.53;1.37;;;-28.20;99.90;;;;;;5063799;28;20203;-76
2022/07/04 07:49:18;;;;;;;2.80;1.07;;;-31.10;99.20;;;;;;5067767;28;20203;-75
2022/07/04 07:51:44;;;;;;;3.93;1.37;;;-22.60;99.90;;;;;;5066467;28;20182;-71
2022/07/04 07:54:10;;;;;;;4.40;1.50;;;-27.60;98.70;;;;;;5065135;28;20179;-65
2022/07/04 07:56:35;;;;;;;2.60;1.13;;;-22.90;99.90;;;;;;5064651;28;20183;-65
2022/07/04 07:59:01;;;;;;;5.67;1.17;;;-29.50;98.30;;;;;;5063593;28;20192;-65
2022/07/04 08:01:27;;;;;;;2.77;1.27;;;-29.70;97.80;;;;;;5065004;28;20504;-70
2022/07/04 08:06:37;;;;;;;3.23;1.20;;;-32.60;93.90;;;;;;5064706;28;20259;-67
2022/07/04 08:09:03;;;;;;;5.93;1.13;;;-25.10;95.20;;;;;;5065781;28;20258;-69
2022/07/04 08:11:29;;;;;;;1.30;1.00;;;-23.20;95.20;;;;;;5063723;28;20179;-69
2022/07/04 08:13:55;;;;;;;0.80;0.70;;;-25.00;95.00;;;;;;5065088;28;20597;-67
2022/07/04 08:16:21;;;;;;;1.43;1.13;;;-18.80;96.30;;;;;;5066418;28;20172;-68
2022/07/04 08:18:47;;;;;;;4.40;1.30;;;-22.30;95.90;;;;;;5063722;28;20575;-70
2022/07/04 08:21:16;;;;;;;13.20;1.40;;;-24.70;95.90;;;;;;5064508;28;20175;-75
2022/07/04 08:23:42;;;;;;;0.83;0.80;;;-23.10;95.10;;;;;;5065027;28;20167;-66
2022/07/04 08:26:07;;;;;;;3.13;0.97;;;-23.80;93.90;;;;;;5069377;28;20613;-66
2022/07/04 08:28:33;;;;;;;0.90;0.90;;;-15.60;96.20;;;;;;5064321;28;20167;-67
2022/07/04 08:30:59;;;;;;;2.20;0.93;;;-18.00;95.30;;;;;;5065368;28;20262;-68
2022/07/04 08:33:25;;;;;;;0.70;0.70;;;-21.40;93.90;;;;;;5063503;28;20164;-65
2022/07/04 08:35:53;;;;;;;2.87;1.23;;;-23.90;93.30;;;;;;5063604;28;20601;-66
2022/07/04 08:38:19;;;;;;;1.97;0.90;;;-29.50;92.20;;;;;;5065338;28;20191;-66
2022/07/04 08:40:47;;;;;;;1.60;0.80;;;-30.80;91.30;;;;;;5065610;28;20210;-65
2022/07/04 08:43:14;;;;;;;1.50;1.40;;;-28.40;92.30;;;;;;5063944;28;20179;-71
2022/07/04 08:45:40;;;;;;;1.37;1.13;;;-26.50;91.00;;;;;;5065483;28;20176;-70
2022/07/04 08:48:08;;;;;;;1.43;1.00;;;-16.50;94.70;;;;;;5063890;28;20199;-71
2022/07/04 08:50:44;;;;;;;1.40;0.90;;;-18.50;93.80;;;;;;5067140;28;20179;-69
2022/07/04 08:53:13;;;;;;;0.87;0.67;;;-22.80;92.80;;;;;;5066547;28;20186;-68
2022/07/04 08:58:31;;;;;;;2.43;0.70;;;-19.40;93.40;;;;;;5068418;28;20652;-74
2022/07/04 09:01:14;;;;;;;0.67;0.53;;;-18.50;93.50;;;;;;5067701;28;20216;-71
2022/07/04 09:03:43;;;;;;;1.20;0.80;;;-17.00;93.00;;;;;;5068489;28;20176;-70
2022/07/04 09:06:10;;;;;;;3.03;0.83;;;-21.70;91.80;;;;;;5066991;28;20246;-69
2022/07/04 09:08:37;;;;;;;0.77;0.77;;;-23.90;90.80;;;;;;5067977;28;20210;-81
2022/07/04 09:11:02;;;;;;;1.47;0.80;;;-20.00;92.10;;;;;;5068418;28;20176;-75
2022/07/04 09:13:30;;;;;;;4.90;1.03;;;-24.20;91.30;;;;;;5066589;28;20567;-74
2022/07/04 09:15:56;;;;;;;5.70;1.10;;;-22.90;90.80;;;;;;5068356;28;20179;-65
2022/07/04 09:18:30;;;;;;;3.43;1.27;;;-21.70;91.90;;;;;;5067087;28;20176;-75
2022/07/04 09:21:02;;;;;;;3.80;1.53;;;-21.30;92.10;;;;;;5066969;28;20255;-69
2022/07/04 09:23:39;;;;;;;2.10;1.43;;;-18.30;93.90;;;;;;5070684;28;20255;-72
2022/07/04 09:26:10;;;;;;;1.87;1.20;;;-21.20;92.20;;;;;;5068238;28;20175;-75
2022/07/04 09:28:38;;;;;;;3.70;1.43;;;-29.10;90.00;;;;;;5067541;28;20171;-74
2022/07/04 09:31:23;;;;;;;4.80;2.10;;;-23.50;91.90;;;;;;5069265;28;20195;-68
2022/07/04 09:34:07;;;;;;;2.10;1.47;;;-16.90;93.90;;;;;;5068433;28;20172;-69
2022/07/04 09:36:38;;;;;;;5.60;3.80;;;-15.00;95.00;;;;;;5066775;28;20467;-79
2022/07/04 09:39:20;;;;;;;6.77;4.73;;;-17.60;92.90;;;;;;5065987;28;20213;-76
2022/07/04 09:41:55;;;;;;;13.07;6.87;;;-11.40;94.30;;;;;;5067851;28;20167;-78
2022/07/04 09:44:23;;;;;;;7.23;6.20;;;-21.50;91.80;;;;;;5067617;28;20175;-74
2022/07/04 09:46:49;;;;;;;10.13;6.40;;;-13.10;93.20;;;;;;5066532;28;20222;-77
2022/07/04 09:49:15;;;;;;;11.53;7.43;;;-13.20;92.50;;;;;;5068766;28;20203;-71
2022/07/04 09:51:49;;;;;;;13.00;6.93;;;-11.60;94.10;;;;;;5066244;28;20171;-71
2022/07/04 09:54:31;;;;;;;12.87;6.97;;;-23.70;89.10;;;;;;5066399;28;20178;-67
2022/07/04 09:56:59;;;;;;;11.70;8.03;;;-19.10;89.00;;;;;;5068382;28;20594;-68
2022/07/04 09:59:27;;;;;;;13.57;8.20;;;-18.40;88.80;;;;;;5064878;28;20206;-68
2022/07/04 10:02:10;;;;;;;16.03;9.60;;;-12.80;91.00;;;;;;5064604;28;20529;-67
2022/07/04 10:04:53;;;;;;;10.53;7.47;;;-16.40;88.80;;;;;;5065297;28;20172;-73
2022/07/04 10:07:43;;;;;;;11.07;7.87;;;-14.30;88.10;;;;;;5069563;28;20175;-68
2022/07/04 10:10:26;;;;;;;16.20;9.43;;;-17.50;87.50;;;;;;5068268;28;20192;-77
2022/07/04 10:12:55;;;;;;;14.73;10.53;;;21.20;99.90;;;;;;5066165;28;20171;-73
2022/07/04 10:15:21;;;;;;;22.80;11.03;;;21.60;99.90;;;;;;5067173;28;20184;-70
2022/07/04 10:17:48;;;;;;;11.23;7.53;;;21.70;99.90;;;;;;5067722;28;20171;-80
2022/07/04 10:20:14;;;;;;;9.47;7.30;;;21.70;98.60;;;;;;5068775;28;20606;-71
2022/07/04 10:22:40;;;;;;;21.30;7.47;;;21.60;98.20;;;;;;5070009;28;20182;-74
2022/07/04 10:25:08;;;;;;;10.80;7.47;;;21.60;97.80;;;;;;5071088;28;20184;-70
2022/07/04 10:27:35;;;;;;;14.77;10.03;;;21.50;97.70;;;;;;5068251;28;20175;-68
2022/07/04 10:30:03;;;;;;;14.00;9.23;;;21.50;99.60;;;;;;5068410;28;20174;-75
2022/07/04 10:32:30;;;;;;;9.60;7.30;;;9.10;96.10;;;;;;5071947;28;20183;-72
2022/07/04 10:34:56;;;;;;;8.93;5.83;;;22.00;98.20;;;;;;5070085;28;20186;-72
2022/07/04 10:37:21;;;;;;;2.73;2.40;;;-16.30;81.30;;;;;;5069252;28;20179;-76
2022/07/04 10:39:48;;;;;;;1.87;1.67;;;-18.60;77.70;;;;;;5069485;28;20210;-74
2022/07/04 10:42:24;;;;;;;2.50;1.40;;;-14.00;77.20;;;;;;5070071;28;20179;-73
2022/07/04 10:44:50;;;;;;;3.23;1.80;;;-11.00;78.20;;;;;;5068772;28;20744;-69
2022/07/04 10:47:25;;;;;;;3.23;2.13;;;21.80;95.10;;;;;;5067958;28;20198;-71
2022/07/04 10:49:51;;;;;;;4.50;1.90;;;22.10;97.20;;;;;;5066228;28;20191;-69
2022/07/04 10:52:18;;;;;;;2.20;1.67;;;22.20;95.40;;;;;;5067349;28;20618;-67
2022/07/04 10:54:45;;;;;;;4.73;4.27;;;22.20;94.50;;;;;;5056633;28;20773;-71
2022/07/04 10:57:20;;;;;;;5.33;2.03;;;22.20;94.60;;;;;;5062905;28;20171;-66
2022/07/04 10:59:59;;;;;;;1.13;1.10;;;22.30;94.90;;;;;;5067879;28;20183;-65
2022/07/04 11:02:26;;;;;;;2.37;1.27;;;22.20;95.10;;;;;;5067678;28;20597;-66
2022/07/04 11:04:58;;;;;;;3.40;1.07;;;21.10;94.50;;;;;;5068509;28;20639;-74
2022/07/04 11:07:30;;;;;;;2.73;1.30;;;22.90;95.20;;;;;;5064264;28;20274;-66
2022/07/04 11:10:16;;;;;;;2.43;1.00;;;22.60;95.80;;;;;;5064254;28;20171;-80
2022/07/04 11:12:56;;;;;;;2.30;1.40;;;22.80;95.50;;;;;;5064816;28;20528;-76
2022/07/04 11:15:28;;;;;;;2.80;1.43;;;22.80;96.20;;;;;;5065073;28;20266;-67
2022/07/04 11:18:14;;;;;;;3.83;1.73;;;22.70;96.00;;;;;;5064775;28;20164;-68
2022/07/04 11:20:47;;;;;;;2.30;1.67;;;22.90;96.40;;;;;;5065233;28;20201;-72
2022/07/04 11:23:20;;;;;;;2.90;2.27;;;23.00;96.20;;;;;;5065403;28;20181;-66
2022/07/04 11:25:50;;;;;;;4.10;2.17;;;23.10;96.50;;;;;;5065468;28;20463;-65
2022/07/04 11:28:23;;;;;;;2.37;2.00;;;23.00;96.60;;;;;;5064996;28;20251;-63
2022/07/04 11:30:50;;;;;;;2.10;1.47;;;23.10;96.00;;;;;;5066290;28;20184;-69
2022/07/04 11:33:22;;;;;;;5.33;2.40;;;23.10;97.00;;;;;;5064752;28;20613;-69
2022/07/04 11:36:06;;;;;;;2.53;1.40;;;22.50;95.70;;;;;;5065754;28;20191;-69
2022/07/04 11:38:56;;;;;;;3.70;1.57;;;23.20;95.30;;;;;;5064944;28;20191;-66
2022/07/04 11:47:07;;;;;;;2.40;1.13;;;21.30;94.40;;;;;;5066956;28;20198;-68
2022/07/04 11:49:34;;;;;;;1.63;1.27;;;22.20;94.80;;;;;;5065638;28;20194;-67
2022/07/04 11:52:00;;;;;;;2.27;1.30;;;22.20;95.30;;;;;;5064923;28;20480;-65
2022/07/04 11:54:25;;;;;;;2.10;1.20;;;-3.30;84.30;;;;;;5067466;28;20266;-67
2022/07/04 11:56:51;;;;;;;4.00;2.10;;;-4.60;81.50;;;;;;5064340;28;20271;-73
2022/07/04 11:59:18;;;;;;;1.23;1.23;;;-5.20;80.20;;;;;;5065838;28;20199;-70
2022/07/04 12:01:45;;;;;;;2.80;1.90;;;-5.90;78.10;;;;;;5065716;28;20183;-75
2022/07/04 12:04:20;;;;;;;1.30;1.27;;;-8.50;74.60;;;;;;5067251;28;20217;-70
2022/07/04 12:06:47;;;;;;;2.33;1.30;;;-9.10;74.40;;;;;;5063895;28;20175;-78
2022/07/04 12:09:17;;;;;;;1.80;1.47;;;-14.70;69.10;;;;;;5067334;28;20495;-78
2022/07/04 12:11:55;;;;;;;7.33;2.77;;;-12.70;68.70;;;;;;5065582;28;20183;-67
2022/07/04 12:14:21;;;;;;;2.37;1.13;;;-12.50;69.30;;;;;;5066027;28;20206;-75
2022/07/04 12:16:47;;;;;;;1.53;0.93;;;-15.30;64.50;;;;;;5067189;28;20298;-67
2022/07/04 12:19:13;;;;;;;1.37;1.10;;;-10.20;69.30;;;;;;5067108;28;20211;-69
2022/07/04 12:21:41;;;;;;;7.07;2.20;;;-12.70;67.60;;;;;;5065531;28;20198;-72
2022/07/04 12:24:08;;;;;;;1.63;1.53;;;-8.00;73.70;;;;;;5070097;28;20171;-67
2022/07/04 12:26:43;;;;;;;4.07;1.73;;;-2.10;79.30;;;;;;5072495;28;20174;-65
2022/07/04 12:29:09;;;;;;;1.73;1.50;;;-2.20;80.00;;;;;;5088634;28;20274;-72
2022/07/04 12:31:43;;;;;;;3.10;1.10;;;-5.50;73.40;;;;;;5071094;28;20646;-68
2022/07/04 12:34:18;;;;;;;2.80;1.40;;;-9.90;67.20;;;;;;5070181;28;20183;-72
2022/07/04 12:36:51;;;;;;;6.97;2.20;;;-20.30;58.40;;;;;;5068463;28;20179;-74
2022/07/04 12:39:34;;;;;;;1.37;1.27;;;-16.40;57.50;;;;;;5069100;28;20290;-72
2022/07/04 12:42:14;;;;;;;0.80;0.77;;;-10.80;62.30;;;;;;5070977;28;20171;-68
2022/07/04 12:44:41;;;;;;;1.80;1.70;;;-14.10;59.00;;;;;;5067140;28;20184;-69
2022/07/04 12:47:08;;;;;;;1.97;1.87;;;-32.70;53.20;;;;;;5071007;28;20497;-70
2022/07/04 12:49:34;;;;;;;1.35;0.98;;;-33.90;48.80;;;;;;5090159;28;20195;-71
2022/07/04 12:52:09;;;;;;;2.00;1.55;;;-40.00;42.70;;;;;;5071163;28;20658;-67
2022/07/04 12:54:35;;;;;;;2.88;2.17;;;-40.00;44.20;;;;;;5069425;28;20186;-68
2022/07/04 12:57:15;;;;;;;1.07;1.03;;;-29.20;51.10;;;;;;5067420;28;20183;-65
2022/07/04 12:59:42;;;;;;;1.23;1.10;;;27.20;85.30;;;;;;5071033;28;20206;-67